Time;durP1;ratioP1;P1;durP2;ratioP2;P2;SDS_P1;SDS_P2;PMS_P1;PMS_P2;Temp;Humidity;BMP_temperature;BMP_pressure;BME280_temperature;BME280_humidity;BME280_pressure;Samples;Min_cycle;Max_cycle;Signal;HPM_P1;HPM_P2
2023/07/13 00:01:12;;;;;;;;;;;15.80;35.50;;;;;;4900622;29;19993;-73
2023/07/13 00:03:40;;;;;;;;;;;15.80;99.90;;;;;;4917343;29;19945;-73
2023/07/13 00:06:07;;;;;;;;;;;15.80;41.90;;;;;;4899954;29;19947;-73
2023/07/13 00:08:33;;;;;;;;;;;15.80;99.90;;;;;;4916866;29;19918;-73
2023/07/13 00:10:58;;;;;;;;;;;15.80;99.90;;;;;;4916082;29;19929;-73
2023/07/13 00:13:24;;;;;;;;;;;15.80;99.90;;;;;;4917456;29;20344;-73
2023/07/13 00:15:49;;;;;;;;;;;15.80;99.90;;;;;;4932995;29;20385;-73
2023/07/13 00:18:15;;;;;;;;;;;15.80;99.90;;;;;;4913796;29;19923;-73
2023/07/13 00:20:41;;;;;;;;;;;15.80;99.90;;;;;;4907464;29;19927;-73
2023/07/13 00:23:07;;;;;;;;;;;15.80;99.90;;;;;;4909788;29;20294;-71
2023/07/13 00:25:32;;;;;;;;;;;15.80;99.90;;;;;;4916187;29;19962;-71
2023/07/13 00:27:58;;;;;;;;;;;15.80;99.90;;;;;;4908766;29;20465;-72
2023/07/13 00:30:24;;;;;;;;;;;15.80;99.90;;;;;;4912689;29;20008;-72
2023/07/13 00:32:49;;;;;;;;;;;15.80;99.90;;;;;;4916291;29;20358;-72
2023/07/13 00:35:15;;;;;;;;;;;15.80;99.90;;;;;;4894317;29;19967;-72
2023/07/13 00:37:41;;;;;;;;;;;15.80;99.90;;;;;;4914513;29;19945;-72
2023/07/13 00:40:07;;;;;;;;;;;15.80;99.90;;;;;;4913921;29;19929;-72
2023/07/13 00:42:33;;;;;;;;;;;15.90;99.90;;;;;;4916674;29;19922;-72
2023/07/13 00:45:05;;;;;;;;;;;15.90;99.90;;;;;;4900082;29;20364;-72
2023/07/13 00:47:30;;;;;;;;;;;15.90;1.00;;;;;;4900744;29;20017;-72
2023/07/13 00:49:56;;;;;;;;;;;15.90;1.00;;;;;;4915520;29;20034;-72
2023/07/13 00:52:21;;;;;;;;;;;15.90;99.90;;;;;;4914946;29;19934;-72
2023/07/13 00:54:48;;;;;;;;;;;15.80;99.90;;;;;;4915849;29;19927;-72
2023/07/13 00:57:15;;;;;;;;;;;15.90;1.00;;;;;;4916465;29;19969;-72
2023/07/13 00:59:42;;;;;;;;;;;15.90;1.00;;;;;;4915156;29;20116;-72
2023/07/13 01:02:08;;;;;;;;;;;15.80;1.00;;;;;;4915377;29;19919;-72
2023/07/13 01:04:33;;;;;;;;;;;15.90;1.00;;;;;;4909905;29;19919;-72
2023/07/13 01:06:59;;;;;;;;;;;15.80;1.00;;;;;;4929553;29;19929;-72
2023/07/13 01:09:26;;;;;;;;;;;15.80;1.00;;;;;;4920621;29;19970;-72
2023/07/13 01:11:51;;;;;;;;;;;15.80;1.00;;;;;;4917154;29;19961;-72
2023/07/13 01:14:17;;;;;;;;;;;15.70;1.00;;;;;;4916617;29;19918;-72
2023/07/13 01:16:44;;;;;;;;;;;15.70;1.00;;;;;;4916088;29;20308;-73
2023/07/13 01:19:25;;;;;;;;;;;15.70;1.00;;;;;;4888078;29;20326;-72
2023/07/13 01:21:52;;;;;;;;;;;15.60;1.00;;;;;;4918564;29;19940;-73
2023/07/13 01:24:18;;;;;;;;;;;15.60;1.00;;;;;;4919435;29;19934;-72
2023/07/13 01:26:43;;;;;;;;;;;15.60;7.40;;;;;;4916315;29;19919;-72
2023/07/13 01:29:09;;;;;;;;;;;15.60;13.20;;;;;;4915335;29;20313;-72
2023/07/13 01:31:34;;;;;;;;;;;15.60;53.50;;;;;;4914135;29;19934;-72
2023/07/13 01:34:00;;;;;;;;;;;15.60;55.60;;;;;;4927958;29;19927;-72
2023/07/13 01:36:26;;;;;;;;;;;15.50;94.60;;;;;;4907161;29;20407;-73
2023/07/13 01:38:51;;;;;;;;;;;15.50;94.60;;;;;;4920286;29;19938;-73
2023/07/13 01:41:17;;;;;;;;;;;15.60;99.90;;;;;;4917119;29;20440;-73
2023/07/13 01:43:43;;;;;;;;;;;15.60;99.30;;;;;;4920772;29;19918;-74
2023/07/13 01:46:08;;;;;;;;;;;15.60;99.90;;;;;;4906291;29;20314;-73
2023/07/13 01:48:34;;;;;;;;;;;15.60;99.90;;;;;;4920397;29;19954;-71
2023/07/13 01:50:59;;;;;;;;;;;15.70;99.90;;;;;;4913449;29;19918;-71
2023/07/13 01:53:25;;;;;;;;;;;15.70;99.90;;;;;;4914479;29;19919;-72
2023/07/13 01:55:51;;;;;;;;;;;15.70;99.90;;;;;;4913752;29;19919;-71
2023/07/13 01:58:16;;;;;;;;;;;15.70;99.90;;;;;;4917804;29;19929;-72
2023/07/13 02:00:42;;;;;;;;;;;15.70;99.90;;;;;;4918594;29;19922;-72
2023/07/13 02:03:07;;;;;;;;;;;15.70;99.90;;;;;;4925612;29;20542;-72
2023/07/13 02:05:33;;;;;;;;;;;15.70;99.90;;;;;;4918860;29;19973;-72
2023/07/13 02:07:59;;;;;;;;;;;15.70;99.90;;;;;;4915046;29;19931;-72
2023/07/13 02:10:24;;;;;;;;;;;15.70;99.90;;;;;;4936457;29;20290;-72
2023/07/13 02:12:50;;;;;;;;;;;15.70;99.90;;;;;;4915375;29;20013;-72
2023/07/13 02:15:16;;;;;;;;;;;15.70;99.90;;;;;;4896714;29;20278;-72
2023/07/13 02:17:41;;;;;;;;;;;15.70;99.90;;;;;;4904699;29;19930;-72
2023/07/13 02:20:07;;;;;;;;;;;15.60;99.90;;;;;;4919277;29;19922;-72
2023/07/13 02:22:33;;;;;;;;;;;15.70;99.90;;;;;;4918567;29;20374;-73
2023/07/13 02:24:59;;;;;;;;;;;15.70;99.90;;;;;;4933897;29;19923;-72
2023/07/13 02:27:24;;;;;;;;;;;15.60;99.90;;;;;;4903090;29;19918;-72
2023/07/13 02:29:53;;;;;;;;;;;15.60;99.90;;;;;;4911334;29;19923;-72
2023/07/13 02:32:19;;;;;;;;;;;15.60;99.90;;;;;;4914486;29;19994;-72
2023/07/13 02:34:44;;;;;;;;;;;15.60;99.90;;;;;;4913630;29;19962;-72
2023/07/13 02:37:10;;;;;;;;;;;15.60;99.90;;;;;;4914842;29;19919;-72
2023/07/13 02:39:36;;;;;;;;;;;15.50;99.90;;;;;;4919453;29;19926;-72
2023/07/13 02:42:01;;;;;;;;;;;15.50;99.90;;;;;;4913764;29;19951;-72
2023/07/13 02:44:27;;;;;;;;;;;15.50;99.90;;;;;;4914801;29;19927;-72
2023/07/13 02:46:53;;;;;;;;;;;15.50;99.90;;;;;;4906472;29;20340;-72
2023/07/13 02:49:18;;;;;;;;;;;15.40;99.90;;;;;;4916298;29;19926;-72
2023/07/13 02:51:44;;;;;;;;;;;15.40;99.90;;;;;;4917131;29;19923;-72
2023/07/13 02:54:10;;;;;;;;;;;15.40;99.90;;;;;;4913781;29;20275;-73
2023/07/13 02:56:35;;;;;;;;;;;15.30;99.90;;;;;;4903749;29;19925;-74
2023/07/13 02:59:02;;;;;;;;;;;15.40;99.90;;;;;;4916894;29;20610;-73
2023/07/13 03:01:28;;;;;;;;;;;15.40;99.90;;;;;;4919366;29;19918;-73
2023/07/13 03:03:53;;;;;;;;;;;15.30;99.90;;;;;;4911347;29;20385;-71
2023/07/13 03:06:19;;;;;;;;;;;15.30;99.90;;;;;;4916346;29;19996;-73
2023/07/13 03:08:45;;;;;;;;;;;15.30;99.90;;;;;;4913705;29;19925;-73
2023/07/13 03:11:16;;;;;;;;;;;15.30;99.90;;;;;;4902180;29;20348;-73
2023/07/13 03:13:42;;;;;;;;;;;15.20;99.90;;;;;;4903710;29;19922;-74
2023/07/13 03:16:08;;;;;;;;;;;15.30;99.90;;;;;;4903964;29;20373;-76
2023/07/13 03:18:34;;;;;;;;;;;15.30;99.90;;;;;;4915795;29;19919;-75
2023/07/13 03:20:59;;;;;;;;;;;15.20;99.90;;;;;;4922892;29;20032;-76
2023/07/13 03:23:25;;;;;;;;;;;15.20;99.90;;;;;;4912958;29;20346;-75
2023/07/13 03:26:00;;;;;;;;;;;15.20;99.90;;;;;;4924228;29;19923;-76
2023/07/13 03:28:26;;;;;;;;;;;15.20;99.90;;;;;;4926465;29;19919;-76
2023/07/13 03:30:58;;;;;;;;;;;15.20;99.90;;;;;;4935755;29;19923;-76
2023/07/13 03:33:24;;;;;;;;;;;15.20;99.90;;;;;;4933924;29;19927;-75
2023/07/13 03:35:49;;;;;;;;;;;15.20;99.90;;;;;;4934197;29;19926;-75
2023/07/13 03:38:15;;;;;;;;;;;15.20;99.90;;;;;;4909875;29;19926;-75
2023/07/13 03:40:41;;;;;;;;;;;15.10;99.90;;;;;;4899143;29;20370;-84
2023/07/13 03:43:07;;;;;;;;;;;15.20;99.90;;;;;;4902834;29;19926;-75
2023/07/13 03:45:32;;;;;;;;;;;15.20;99.90;;;;;;4908666;29;20231;-76
2023/07/13 03:47:58;;;;;;;;;;;15.20;99.90;;;;;;4901831;29;19966;-75
2023/07/13 03:50:23;;;;;;;;;;;15.30;99.90;;;;;;4930260;29;19918;-76
2023/07/13 03:52:49;;;;;;;;;;;15.30;99.90;;;;;;4934972;29;19929;-76
2023/07/13 03:55:14;;;;;;;;;;;15.40;99.90;;;;;;4927564;29;19919;-76
2023/07/13 03:57:40;;;;;;;;;;;15.30;99.90;;;;;;4913559;29;19943;-76
2023/07/13 04:00:06;;;;;;;;;;;15.40;99.90;;;;;;4918227;29;19919;-76
2023/07/13 04:02:32;;;;;;;;;;;15.40;99.90;;;;;;4929081;29;19923;-75
2023/07/13 04:04:57;;;;;;;;;;;15.40;99.90;;;;;;4899227;29;19919;-76
2023/07/13 04:07:23;;;;;;;;;;;15.40;99.90;;;;;;4928449;29;20022;-76
2023/07/13 04:09:48;;;;;;;;;;;15.50;99.90;;;;;;4914246;29;19926;-76
2023/07/13 04:12:14;;;;;;;;;;;15.50;99.90;;;;;;4921913;29;19923;-75
2023/07/13 04:14:40;;;;;;;;;;;15.40;99.90;;;;;;4932602;29;19942;-76
2023/07/13 04:17:06;;;;;;;;;;;15.40;99.90;;;;;;4917933;29;20278;-76
2023/07/13 04:19:31;;;;;;;;;;;15.40;99.90;;;;;;4902339;29;19952;-76
2023/07/13 04:21:57;;;;;;;;;;;15.40;99.90;;;;;;4918432;29;19918;-74
2023/07/13 04:24:22;;;;;;;;;;;15.50;99.90;;;;;;4907624;29;19973;-76
2023/07/13 04:26:48;;;;;;;;;;;15.40;99.90;;;;;;4923978;29;20440;-76
2023/07/13 04:29:13;;;;;;;;;;;15.40;99.90;;;;;;4933037;29;19919;-75
2023/07/13 04:31:39;;;;;;;;;;;15.50;99.90;;;;;;4899929;29;19927;-76
2023/07/13 04:34:05;;;;;;;;;;;15.50;99.90;;;;;;4915729;29;19973;-76
2023/07/13 04:36:30;;;;;;;;;;;15.50;99.90;;;;;;4900255;29;20401;-76
2023/07/13 04:38:56;;;;;;;;;;;15.60;99.90;;;;;;4912481;29;20052;-75
2023/07/13 04:41:21;;;;;;;;;;;15.50;99.90;;;;;;4916710;29;20382;-76
2023/07/13 04:43:48;;;;;;;;;;;15.60;99.90;;;;;;4912242;29;20314;-76
2023/07/13 04:46:15;;;;;;;;;;;15.60;99.90;;;;;;4913700;29;19922;-76
2023/07/13 04:48:40;;;;;;;;;;;15.60;99.90;;;;;;4916083;29;19926;-76
2023/07/13 04:51:06;;;;;;;;;;;15.60;99.90;;;;;;4923582;29;19930;-75
2023/07/13 04:53:32;;;;;;;;;;;15.70;99.90;;;;;;4907122;29;20412;-75
2023/07/13 04:55:58;;;;;;;;;;;15.60;99.90;;;;;;4916448;29;19966;-75
2023/07/13 04:58:24;;;;;;;;;;;15.80;99.90;;;;;;4933934;29;19957;-75
2023/07/13 05:00:49;;;;;;;;;;;15.80;99.90;;;;;;4903609;29;19926;-76
2023/07/13 05:03:15;;;;;;;;;;;15.80;99.90;;;;;;4918916;29;20309;-76
2023/07/13 05:05:41;;;;;;;;;;;15.80;99.90;;;;;;4910313;29;19927;-75
2023/07/13 05:08:07;;;;;;;;;;;15.80;99.90;;;;;;4916828;29;20366;-75
2023/07/13 05:10:33;;;;;;;;;;;15.90;99.90;;;;;;4933180;29;20353;-75
2023/07/13 05:12:58;;;;;;;;;;;15.90;99.90;;;;;;4915517;29;20391;-75
2023/07/13 05:15:25;;;;;;;;;;;16.00;99.90;;;;;;4930666;29;20548;-75
2023/07/13 05:17:50;;;;;;;;;;;16.00;99.90;;;;;;4927215;29;19929;-76
2023/07/13 05:20:17;;;;;;;;;;;16.10;99.90;;;;;;4914933;29;19923;-76
2023/07/13 05:22:43;;;;;;;;;;;16.10;99.90;;;;;;4915356;29;20407;-76
2023/07/13 05:25:08;;;;;;;;;;;16.10;99.90;;;;;;4928514;29;19990;-76
2023/07/13 05:27:34;;;;;;;;;;;16.20;99.90;;;;;;4931308;29;19919;-76
2023/07/13 05:30:00;;;;;;;;;;;16.30;99.90;;;;;;4911778;29;20366;-76
2023/07/13 05:32:26;;;;;;;;;;;16.30;99.90;;;;;;4946806;29;19922;-76
2023/07/13 05:34:52;;;;;;;;;;;16.30;99.90;;;;;;4938508;29;20389;-75
2023/07/13 05:37:18;;;;;;;;;;;16.40;99.90;;;;;;4933001;29;19926;-75
2023/07/13 05:39:43;;;;;;;;;;;16.40;99.90;;;;;;4939352;29;20285;-75
2023/07/13 05:42:09;;;;;;;;;;;16.40;99.90;;;;;;4917766;29;20030;-75
2023/07/13 05:44:34;;;;;;;;;;;16.50;99.90;;;;;;4904915;29;19919;-75
2023/07/13 05:47:00;;;;;;;;;;;16.50;99.90;;;;;;4910353;29;19922;-75
2023/07/13 05:49:25;;;;;;;;;;;16.60;99.90;;;;;;4906816;29;19923;-76
2023/07/13 05:51:51;;;;;;;;;;;16.60;99.90;;;;;;4929001;29;19926;-75
2023/07/13 05:54:16;;;;;;;;;;;16.70;99.90;;;;;;4909018;29;19922;-75
2023/07/13 05:56:42;;;;;;;;;;;16.80;99.90;;;;;;4913399;29;19950;-75
2023/07/13 05:59:08;;;;;;;;;;;16.80;99.90;;;;;;4912798;29;20290;-74
2023/07/13 06:01:33;;;;;;;;;;;16.90;99.90;;;;;;4933901;29;19922;-76
2023/07/13 06:03:59;;;;;;;;;;;17.00;99.90;;;;;;4917102;29;19974;-75
2023/07/13 06:06:24;;;;;;;;;;;17.10;99.90;;;;;;4923417;29;19922;-75
2023/07/13 06:08:50;;;;;;;;;;;17.10;99.90;;;;;;4915721;29;19929;-75
2023/07/13 06:11:17;;;;;;;;;;;17.20;99.90;;;;;;4927281;29;19966;-75
2023/07/13 06:13:43;;;;;;;;;;;17.30;99.90;;;;;;4931244;29;19924;-75
2023/07/13 06:16:09;;;;;;;;;;;17.40;99.90;;;;;;4914540;29;20293;-75
2023/07/13 06:18:35;;;;;;;;;;;17.50;99.90;;;;;;4917821;29;19923;-75
2023/07/13 06:21:12;;;;;;;;;;;17.50;99.90;;;;;;4946811;29;20001;-75
2023/07/13 06:23:37;;;;;;;;;;;17.60;99.90;;;;;;4917590;29;19926;-75
2023/07/13 06:26:03;;;;;;;;;;;17.60;99.90;;;;;;4917737;29;19919;-75
2023/07/13 06:28:30;;;;;;;;;;;17.70;99.90;;;;;;4927315;29;19919;-76
2023/07/13 06:30:55;;;;;;;;;;;17.80;99.90;;;;;;4916959;29;19926;-76
2023/07/13 06:33:21;;;;;;;;;;;17.90;99.90;;;;;;4932134;29;20456;-75
2023/07/13 06:35:46;;;;;;;;;;;17.90;99.90;;;;;;4934931;29;19922;-76
2023/07/13 06:38:12;;;;;;;;;;;18.00;99.90;;;;;;4916667;29;19923;-75
2023/07/13 06:40:37;;;;;;;;;;;18.00;21.80;;;;;;4903263;29;20331;-75
2023/07/13 06:43:03;;;;;;;;;;;18.10;1.00;;;;;;4924345;29;19976;-76
2023/07/13 06:45:29;;;;;;;;;;;18.20;1.00;;;;;;4925737;29;20357;-76
2023/07/13 06:47:54;;;;;;;;;;;18.30;1.00;;;;;;4915796;29;19922;-75
2023/07/13 06:50:20;;;;;;;;;;;18.40;99.90;;;;;;4917016;29;20133;-75
2023/07/13 06:52:46;;;;;;;;;;;18.60;99.90;;;;;;4928417;29;19926;-76
2023/07/13 06:55:11;;;;;;;;;;;18.70;1.00;;;;;;4927624;29;19922;-76
2023/07/13 06:57:37;;;;;;;;;;;18.70;99.90;;;;;;4922195;29;19961;-76
2023/07/13 07:00:03;;;;;;;;;;;18.70;99.90;;;;;;4928580;29;19938;-76
2023/07/13 07:02:28;;;;;;;;;;;18.80;99.90;;;;;;4919650;29;19967;-76
2023/07/13 07:04:54;;;;;;;;;;;18.90;1.00;;;;;;4910654;29;19922;-76
2023/07/13 07:07:23;;;;;;;;;;;18.90;99.90;;;;;;4924969;29;19919;-76
2023/07/13 07:09:48;;;;;;;;;;;18.90;99.90;;;;;;4946877;29;19968;-76
2023/07/13 07:12:14;;;;;;;;;;;19.20;99.90;;;;;;4918571;29;19977;-76
2023/07/13 07:14:39;;;;;;;;;;;19.40;34.70;;;;;;4946905;29;19929;-76
2023/07/13 07:17:05;;;;;;;;;;;19.40;99.90;;;;;;4945130;29;19988;-76
2023/07/13 07:19:31;;;;;;;;;;;19.30;1.00;;;;;;4918337;29;19918;-77
2023/07/13 07:21:56;;;;;;;;;;;19.00;26.10;;;;;;4902653;29;20009;-77
2023/07/13 07:24:22;;;;;;;;;;;18.90;99.90;;;;;;4913782;29;19933;-77
2023/07/13 07:26:47;;;;;;;;;;;18.60;99.90;;;;;;4914058;29;19918;-77
2023/07/13 07:29:13;;;;;;;;;;;18.40;99.90;;;;;;4912521;29;19972;-77
2023/07/13 07:31:39;;;;;;;;;;;18.30;36.40;;;;;;4918016;29;19931;-76
2023/07/13 07:34:04;;;;;;;;;;;18.20;27.40;;;;;;4933913;29;20017;-76
2023/07/13 07:36:30;;;;;;;;;;;18.30;99.90;;;;;;4947992;29;20374;-76
2023/07/13 07:38:55;;;;;;;;;;;18.30;1.00;;;;;;4924613;29;19998;-77
2023/07/13 07:41:21;;;;;;;;;;;18.40;99.90;;;;;;4918105;29;20362;-76
2023/07/13 07:43:47;;;;;;;;;;;18.50;99.90;;;;;;4902084;29;19957;-76
2023/07/13 07:46:12;;;;;;;;;;;18.50;99.90;;;;;;4915629;29;20014;-76
2023/07/13 07:48:38;;;;;;;;;;;18.50;99.40;;;;;;4910511;29;19922;-76
2023/07/13 07:51:03;;;;;;;;;;;18.50;99.90;;;;;;4914081;29;20355;-76
2023/07/13 07:53:29;;;;;;;;;;;18.50;1.00;;;;;;4911483;29;19923;-77
2023/07/13 07:55:54;;;;;;;;;;;18.40;37.30;;;;;;4927608;29;20395;-77
2023/07/13 07:58:20;;;;;;;;;;;18.40;99.90;;;;;;4912756;29;20127;-77
2023/07/13 08:00:46;;;;;;;;;;;18.20;99.90;;;;;;4910920;29;19926;-77
2023/07/13 08:03:11;;;;;;;;;;;18.10;1.00;;;;;;4917486;29;19949;-77
2023/07/13 08:05:37;;;;;;;;;;;18.00;99.90;;;;;;4916865;29;19922;-77
2023/07/13 08:08:03;;;;;;;;;;;17.80;99.90;;;;;;4911950;29;20385;-77
2023/07/13 08:10:28;;;;;;;;;;;17.70;99.90;;;;;;4918812;29;19926;-77
2023/07/13 08:12:54;;;;;;;;;;;17.50;99.90;;;;;;4907839;29;19970;-77
2023/07/13 08:15:20;;;;;;;;;;;17.50;77.40;;;;;;4910606;29;19958;-77
2023/07/13 08:17:47;;;;;;;;;;;17.40;92.00;;;;;;4908977;29;20401;-75
2023/07/13 08:20:13;;;;;;;;;;;17.50;99.90;;;;;;4907609;29;20032;-76
2023/07/13 08:22:38;;;;;;;;;;;17.50;1.00;;;;;;4927724;29;20016;-76
2023/07/13 08:25:04;;;;;;;;;;;17.70;99.90;;;;;;4926404;29;19929;-76
2023/07/13 08:27:30;;;;;;;;;;;17.90;99.90;;;;;;4914760;29;19925;-76
2023/07/13 08:29:55;;;;;;;;;;;18.40;1.00;;;;;;4908347;29;19919;-76
2023/07/13 08:32:22;;;;;;;;;;;18.70;99.90;;;;;;4917115;29;19922;-76
2023/07/13 08:34:48;;;;;;;;;;;18.80;11.00;;;;;;4915570;29;19922;-76
2023/07/13 08:37:14;;;;;;;;;;;19.00;1.00;;;;;;4931025;29;19918;-76
2023/07/13 08:39:40;;;;;;;;;;;19.10;1.00;;;;;;4894994;29;19919;-77
2023/07/13 08:42:22;;;;;;;;;;;19.10;99.90;;;;;;4923473;29;20021;-76
2023/07/13 08:44:57;;;;;;;;;;;19.10;1.00;;;;;;4903625;29;20330;-76
2023/07/13 08:47:23;;;;;;;;;;;19.50;99.90;;;;;;4909006;29;20437;-76
2023/07/13 08:49:49;;;;;;;;;;;19.70;26.30;;;;;;4910859;29;20379;-76
2023/07/13 08:52:28;;;;;;;;;;;19.80;99.90;;;;;;4910016;29;19926;-76
2023/07/13 08:54:56;;;;;;;;;;;20.20;14.20;;;;;;4915499;29;19997;-76
2023/07/13 08:57:28;;;;;;;;;;;20.50;39.20;;;;;;4925983;29;19946;-76
2023/07/13 08:59:54;;;;;;;;;;;20.80;98.70;;;;;;4913646;29;19934;-76
2023/07/13 09:02:28;;;;;;;;;;;20.80;1.00;;;;;;4935337;29;19977;-76
2023/07/13 09:05:08;;;;;;;;;;;20.30;99.90;;;;;;4916686;29;19929;-76
2023/07/13 09:08:09;;;;;;;;;;;20.20;99.90;;;;;;4907191;29;19922;-76
2023/07/13 09:10:45;;;;;;;;;;;20.10;99.90;;;;;;4813895;29;20576;-76
2023/07/13 09:13:22;;;;;;;;;;;19.90;99.90;;;;;;4903518;29;19930;-76
2023/07/13 09:15:48;;;;;;;;;;;19.70;99.90;;;;;;4915561;29;20383;-76
2023/07/13 09:18:18;;;;;;;;;;;19.80;99.90;;;;;;4904631;29;19986;-76
2023/07/13 09:20:43;;;;;;;;;;;20.10;99.90;;;;;;4933119;29;19918;-76
2023/07/13 09:23:12;;;;;;;;;;;20.40;99.90;;;;;;4916105;29;19934;-76
2023/07/13 09:25:39;;;;;;;;;;;20.20;60.80;;;;;;4928786;29;19919;-76
2023/07/13 09:28:13;;;;;;;;;;;20.00;88.10;;;;;;4910632;29;19923;-76
2023/07/13 09:30:56;;;;;;;;;;;20.40;99.90;;;;;;4930883;29;19919;-77
2023/07/13 09:33:22;;;;;;;;;;;20.90;99.90;;;;;;4920595;29;19970;-76
2023/07/13 09:35:49;;;;;;;;;;;21.50;63.30;;;;;;4923137;29;20386;-76
2023/07/13 09:38:17;;;;;;;;;;;21.90;27.30;;;;;;4914883;29;19965;-76
2023/07/13 09:41:01;;;;;;;;;;;21.70;99.90;;;;;;4894781;29;19923;-77
2023/07/13 09:43:28;;;;;;;;;;;21.80;99.90;;;;;;4906600;29;20070;-76
2023/07/13 09:45:54;;;;;;;;;;;21.90;1.00;;;;;;4912782;29;19926;-76
2023/07/13 09:48:20;;;;;;;;;;;22.10;99.90;;;;;;4909648;29;19970;-76
2023/07/13 09:50:46;;;;;;;;;;;21.90;99.90;;;;;;4910026;29;19922;-76
2023/07/13 09:53:15;;;;;;;;;;;21.90;99.90;;;;;;4931850;29;19926;-76
2023/07/13 09:55:42;;;;;;;;;;;21.90;99.90;;;;;;4918428;29;19934;-76
2023/07/13 09:58:15;;;;;;;;;;;21.60;99.90;;;;;;4949834;29;19918;-76
2023/07/13 10:00:43;;;;;;;;;;;21.20;99.90;;;;;;4930679;29;19934;-75
2023/07/13 10:03:19;;;;;;;;;;;20.80;99.90;;;;;;4922669;29;20342;-75
2023/07/13 10:05:46;;;;;;;;;;;20.60;99.90;;;;;;4914650;29;19919;-76
2023/07/13 10:08:18;;;;;;;;;;;20.30;99.90;;;;;;4925926;29;20377;-75
2023/07/13 10:10:44;;;;;;;;;;;20.10;1.00;;;;;;4902699;29;19926;-75
2023/07/13 10:13:26;;;;;;;;;;;20.10;99.90;;;;;;4936239;29;19930;-75
2023/07/13 10:15:52;;;;;;;;;;;20.00;99.90;;;;;;4904979;29;19930;-75
2023/07/13 10:18:18;;;;;;;;;;;20.10;99.90;;;;;;4919838;29;20282;-76
2023/07/13 10:20:44;;;;;;;;;;;20.40;99.90;;;;;;4914215;29;20383;-76
2023/07/13 10:23:15;;;;;;;;;;;21.00;99.90;;;;;;4919149;29;19938;-76
2023/07/13 10:25:44;;;;;;;;;;;21.30;99.90;;;;;;4916405;29;19927;-76
2023/07/13 10:28:25;;;;;;;;;;;21.10;99.90;;;;;;4916431;29;19919;-76
2023/07/13 10:30:51;;;;;;;;;;;20.70;99.90;;;;;;4921557;29;19981;-76
2023/07/13 10:33:17;;;;;;;;;;;20.70;99.90;;;;;;4911245;29;19938;-76
2023/07/13 10:35:43;;;;;;;;;;;21.10;99.90;;;;;;4913460;29;20310;-76
2023/07/13 10:38:20;;;;;;;;;;;21.60;99.90;;;;;;4900389;29;19966;-76
2023/07/13 10:40:49;;;;;;;;;;;21.90;99.90;;;;;;4913086;29;20358;-75
2023/07/13 10:43:20;;;;;;;;;;;21.80;88.50;;;;;;4910463;29;19926;-73
2023/07/13 10:45:49;;;;;;;;;;;21.90;59.50;;;;;;4931781;29;20503;-73
2023/07/13 10:48:15;;;;;;;;;;;21.60;65.90;;;;;;4918902;29;19923;-73
2023/07/13 10:50:42;;;;;;;;;;;21.40;63.30;;;;;;4927125;29;19934;-73
2023/07/13 10:53:27;;;;;;;;;;;21.10;78.50;;;;;;4916753;29;20029;-73
2023/07/13 10:55:55;;;;;;;;;;;21.00;98.00;;;;;;4934651;29;20342;-74
2023/07/13 10:58:27;;;;;;;;;;;21.20;89.00;;;;;;4899896;29;19926;-74
2023/07/13 11:00:57;;;;;;;;;;;21.80;99.90;;;;;;4930060;29;19919;-74
2023/07/13 11:03:23;;;;;;;;;;;21.90;66.20;;;;;;4917022;29;19923;-73
2023/07/13 11:05:51;;;;;;;;;;;22.00;59.10;;;;;;4922196;29;19977;-73
2023/07/13 11:08:31;;;;;;;;;;;22.10;67.30;;;;;;4904631;29;20054;-74
2023/07/13 11:10:56;;;;;;;;;;;22.40;73.00;;;;;;4924173;29;19997;-74
2023/07/13 11:13:45;;;;;;;;;;;22.40;29.20;;;;;;4901491;29;20362;-73
2023/07/13 11:16:14;;;;;;;;;;;22.70;5.40;;;;;;4917270;29;20000;-73
2023/07/13 11:18:39;;;;;;;;;;;22.90;1.00;;;;;;4924364;29;19969;-73
2023/07/13 11:21:18;;;;;;;;;;;22.70;1.00;;;;;;4933475;29;19918;-73
2023/07/13 11:23:51;;;;;;;;;;;22.90;6.40;;;;;;4916906;29;20009;-72
2023/07/13 11:26:35;;;;;;;;;;;22.90;12.80;;;;;;4929637;29;19923;-73
2023/07/13 11:29:07;;;;;;;;;;;23.00;12.10;;;;;;4906926;29;19919;-74
2023/07/13 11:31:34;;;;;;;;;;;22.20;1.00;;;;;;4913992;29;20430;-74
2023/07/13 11:34:00;;;;;;;;;;;22.50;1.00;;;;;;4918358;29;20441;-73
2023/07/13 11:36:31;;;;;;;;;;;22.80;10.50;;;;;;4917166;29;19918;-73
2023/07/13 11:39:12;;;;;;;;;;;22.90;1.00;;;;;;4935985;29;19923;-73
2023/07/13 11:41:43;;;;;;;;;;;22.30;1.00;;;;;;4944872;29;19926;-73
2023/07/13 11:44:12;;;;;;;;;;;22.60;1.00;;;;;;4919941;29;19942;-73
2023/07/13 11:46:37;;;;;;;;;;;22.70;1.00;;;;;;4929200;29;20387;-73
2023/07/13 11:49:04;;;;;;;;;;;22.90;1.00;;;;;;4913836;29;19985;-73
2023/07/13 11:51:32;;;;;;;;;;;22.80;1.00;;;;;;4890453;29;19919;-74
2023/07/13 11:53:59;;;;;;;;;;;22.20;1.00;;;;;;4930349;29;19978;-72
2023/07/13 11:56:25;;;;;;;;;;;22.10;1.00;;;;;;4917898;29;20350;-73
2023/07/13 11:58:52;;;;;;;;;;;22.10;1.00;;;;;;4914154;29;19942;-73
2023/07/13 12:01:21;;;;;;;;;;;22.30;1.00;;;;;;4910157;29;20048;-73
2023/07/13 12:03:48;;;;;;;;;;;22.80;1.00;;;;;;4933217;29;19923;-74
2023/07/13 12:06:28;;;;;;;;;;;22.50;1.00;;;;;;4917743;29;19922;-73
2023/07/13 12:08:59;;;;;;;;;;;22.30;1.00;;;;;;4912726;29;20263;-75
2023/07/13 12:11:24;;;;;;;;;;;22.10;1.00;;;;;;4933341;29;19968;-74
2023/07/13 12:13:50;;;;;;;;;;;22.00;1.00;;;;;;4904571;29;19974;-74
2023/07/13 12:16:22;;;;;;;;;;;21.90;1.00;;;;;;4927673;29;20353;-74
2023/07/13 12:18:48;;;;;;;;;;;21.50;1.00;;;;;;4912206;29;19914;-74
2023/07/13 12:21:16;;;;;;;;;;;21.40;1.00;;;;;;4914456;29;19941;-74
2023/07/13 12:23:43;;;;;;;;;;;21.20;6.10;;;;;;4938445;29;19939;-74
2023/07/13 12:26:11;;;;;;;;;;;21.40;1.20;;;;;;4933214;29;20375;-74
2023/07/13 12:28:52;;;;;;;;;;;22.10;1.00;;;;;;4915424;29;19929;-74
2023/07/13 12:31:27;;;;;;;;;;;22.50;1.00;;;;;;4924994;29;19927;-74
2023/07/13 12:33:57;;;;;;;;;;;22.60;1.00;;;;;;4910362;29;20009;-74
2023/07/13 12:36:22;;;;;;;;;;;22.70;1.00;;;;;;4925044;29;19982;-74
2023/07/13 12:38:48;;;;;;;;;;;22.60;1.00;;;;;;4915778;29;19918;-74
2023/07/13 12:41:14;;;;;;;;;;;22.20;1.00;;;;;;4920324;29;19946;-75
2023/07/13 12:43:40;;;;;;;;;;;22.40;1.00;;;;;;4895694;29;20369;-75
2023/07/13 12:46:17;;;;;;;;;;;22.00;1.00;;;;;;4913369;29;19922;-76
2023/07/13 12:48:45;;;;;;;;;;;22.00;22.70;;;;;;4913345;29;20483;-76
2023/07/13 12:51:12;;;;;;;;;;;22.00;58.70;;;;;;4908167;29;19928;-75
2023/07/13 12:53:40;;;;;;;;;;;22.00;66.50;;;;;;4912105;29;19927;-75
2023/07/13 12:56:15;;;;;;;;;;;21.80;65.00;;;;;;4932968;29;20312;-75
2023/07/13 12:58:43;;;;;;;;;;;21.70;72.20;;;;;;4931430;29;19919;-76
2023/07/13 13:01:09;;;;;;;;;;;21.50;81.30;;;;;;4918776;29;19970;-76
2023/07/13 13:03:37;;;;;;;;;;;21.30;97.10;;;;;;4914043;29;19923;-76
2023/07/13 13:06:23;;;;;;;;;;;21.10;92.70;;;;;;4912726;29;19923;-76
2023/07/13 13:08:53;;;;;;;;;;;21.00;99.90;;;;;;4910316;29;20071;-76
2023/07/13 13:11:19;;;;;;;;;;;21.00;99.90;;;;;;4912832;29;20289;-76
2023/07/13 13:13:46;;;;;;;;;;;21.30;99.90;;;;;;4911659;29;19919;-76
2023/07/13 13:16:17;;;;;;;;;;;21.50;99.90;;;;;;4922440;29;20409;-76
2023/07/13 13:18:42;;;;;;;;;;;21.50;99.90;;;;;;4904815;29;19933;-77
2023/07/13 13:21:09;;;;;;;;;;;21.30;99.90;;;;;;4934122;29;19919;-76
2023/07/13 13:23:35;;;;;;;;;;;21.40;99.90;;;;;;4933006;29;19931;-75
2023/07/13 13:26:01;;;;;;;;;;;21.20;99.90;;;;;;4892144;29;19929;-75
2023/07/13 13:28:26;;;;;;;;;;;21.60;99.90;;;;;;4915306;29;19931;-76
2023/07/13 13:30:52;;;;;;;;;;;21.50;86.70;;;;;;4917817;29;19970;-75
2023/07/13 13:33:20;;;;;;;;;;;21.60;98.20;;;;;;4939362;29;19927;-76
2023/07/13 13:35:46;;;;;;;;;;;21.50;99.90;;;;;;4910615;29;20017;-76
2023/07/13 13:38:14;;;;;;;;;;;21.30;99.90;;;;;;4918265;29;19997;-76
2023/07/13 13:40:40;;;;;;;;;;;21.00;99.90;;;;;;4914059;29;19969;-76
2023/07/13 13:43:16;;;;;;;;;;;21.00;99.90;;;;;;4924363;29;20021;-76
2023/07/13 13:45:42;;;;;;;;;;;20.60;99.90;;;;;;4911973;29;19969;-76
2023/07/13 13:48:13;;;;;;;;;;;20.30;99.90;;;;;;4916426;29;20414;-76
2023/07/13 13:50:39;;;;;;;;;;;20.70;99.90;;;;;;4913856;29;19970;-76
2023/07/13 13:53:04;;;;;;;;;;;21.00;99.90;;;;;;4938596;29;19926;-76
2023/07/13 13:55:30;;;;;;;;;;;21.50;99.90;;;;;;4919519;29;19990;-76
2023/07/13 13:57:56;;;;;;;;;;;21.60;99.90;;;;;;4903672;29;19927;-76
2023/07/13 14:00:21;;;;;;;;;;;21.80;99.90;;;;;;4913024;29;19919;-76
2023/07/13 14:02:50;;;;;;;;;;;21.40;99.90;;;;;;4919256;29;19927;-76
2023/07/13 14:05:19;;;;;;;;;;;21.40;99.90;;;;;;4911047;29;19925;-76
2023/07/13 14:07:44;;;;;;;;;;;21.30;99.90;;;;;;4916281;29;19923;-76
2023/07/13 14:10:12;;;;;;;;;;;21.20;99.90;;;;;;4913463;29;20282;-76
2023/07/13 14:12:38;;;;;;;;;;;21.30;99.90;;;;;;4905975;29;19993;-76
2023/07/13 14:15:04;;;;;;;;;;;21.60;99.90;;;;;;4913796;29;20331;-77
2023/07/13 14:17:30;;;;;;;;;;;21.70;99.90;;;;;;4924065;29;19919;-76
2023/07/13 14:19:59;;;;;;;;;;;22.10;78.70;;;;;;4930730;29;19923;-77